createdAt,value
2022-08-27T00:00:32.215Z,82.42
2022-08-27T00:05:47.139Z,82.68
2022-08-27T00:10:57.015Z,83.34
2022-08-27T00:16:07.650Z,83.68
2022-08-27T00:21:16.410Z,83.86
2022-08-27T00:26:24.713Z,83.60
2022-08-27T00:31:32.026Z,83.56
2022-08-27T00:36:39.944Z,83.62
2022-08-27T00:41:47.512Z,83.90
2022-08-27T00:47:02.223Z,84.62
2022-08-27T00:52:15.142Z,85.18
2022-08-27T00:57:23.175Z,85.70
2022-08-27T01:02:32.238Z,85.73
2022-08-27T01:07:45.481Z,85.65
2022-08-27T01:12:55.173Z,85.97
2022-08-27T01:18:07.305Z,85.80
2022-08-27T01:23:24.079Z,85.70
2022-08-27T01:28:35.737Z,85.80
2022-08-27T01:33:57.479Z,86.01
2022-08-27T01:39:05.411Z,86.72
2022-08-27T01:44:13.327Z,86.93
2022-08-27T01:49:21.445Z,86.95
2022-08-27T01:54:28.734Z,87.03
2022-08-27T01:59:39.696Z,86.72
2022-08-27T02:04:48.555Z,86.33
2022-08-27T02:09:55.857Z,86.89
2022-08-27T02:15:05.150Z,86.57
2022-08-27T02:20:14.258Z,85.92
2022-08-27T02:25:22.314Z,85.54
2022-08-27T02:30:32.988Z,85.97
2022-08-27T02:35:45.885Z,86.46
2022-08-27T02:40:54.227Z,87.02
2022-08-27T02:46:02.375Z,87.38
2022-08-27T02:51:10.641Z,86.97
2022-08-27T02:56:21.909Z,86.85
2022-08-27T03:01:31.079Z,86.54
2022-08-27T03:06:40.037Z,87.10
2022-08-27T03:11:49.230Z,87.45
2022-08-27T03:17:17.636Z,87.15
2022-08-27T03:22:27.362Z,87.30
2022-08-27T03:27:35.020Z,87.66
2022-08-27T03:32:42.616Z,87.92
2022-08-27T03:37:50.754Z,88.03
2022-08-27T03:43:00.383Z,87.83
2022-08-27T03:48:08.662Z,88.18
2022-08-27T03:53:17.938Z,88.44
2022-08-27T03:58:26.766Z,88.23
2022-08-27T04:03:34.413Z,88.91
2022-08-27T04:08:42.278Z,89.26
2022-08-27T04:13:51.508Z,89.54
2022-08-27T04:19:00.285Z,89.47
2022-08-27T04:24:12.934Z,89.67
2022-08-27T04:29:22.403Z,90.17
2022-08-27T04:34:30.660Z,90.61
2022-08-27T04:39:39.449Z,90.65
2022-08-27T04:44:47.674Z,90.96
2022-08-27T04:49:55.145Z,91.04
2022-08-27T04:55:04.282Z,90.98
2022-08-27T05:00:12.850Z,90.92
2022-08-27T05:05:20.849Z,90.72
2022-08-27T05:20:13.383Z,90.01
2022-08-27T05:25:20.505Z,89.56
2022-08-27T05:30:27.480Z,88.84
2022-08-27T05:35:34.439Z,88.13
2022-08-27T05:40:43.960Z,87.35
2022-08-27T05:45:51.747Z,86.47
2022-08-27T05:50:58.683Z,86.11
2022-08-27T05:56:06.691Z,85.39
2022-08-27T06:01:14.229Z,84.36
2022-08-27T06:06:23.165Z,82.04
2022-08-27T06:11:30.471Z,81.59
2022-08-27T06:16:38.964Z,80.68
2022-08-27T06:21:46.055Z,79.73
2022-08-27T06:27:08.466Z,78.99
2022-08-27T06:32:16.442Z,78.01
2022-08-27T06:37:23.552Z,77.24
2022-08-27T06:42:33.109Z,77.67
2022-08-27T06:47:41.991Z,77.52
2022-08-27T06:52:49.149Z,76.89
2022-08-27T06:57:56.806Z,76.35
2022-08-27T07:03:05.703Z,75.74
2022-08-27T07:08:12.985Z,75.78
2022-08-27T07:13:20.258Z,76.41
2022-08-27T07:18:27.998Z,75.71
2022-08-27T07:23:36.271Z,75.77
2022-08-27T07:28:45.251Z,75.36
2022-08-27T07:33:53.349Z,74.67
2022-08-27T07:39:01.347Z,74.34
2022-08-27T07:44:34.220Z,72.96
2022-08-27T07:49:42.111Z,72.27
2022-08-27T07:54:49.210Z,72.83
2022-08-27T07:59:56.831Z,72.37
2022-08-27T08:05:04.236Z,70.43
2022-08-27T08:10:13.920Z,70.30
2022-08-27T08:15:22.084Z,70.13
2022-08-27T08:20:54.329Z,69.98
2022-08-27T08:25:57.902Z,68.99
2022-08-27T08:31:05.575Z,68.13
2022-08-27T08:36:15.650Z,67.29
2022-08-27T08:41:41.103Z,65.51
2022-08-27T08:46:55.500Z,64.28
2022-08-27T08:52:30.860Z,63.07
2022-08-27T08:57:43.660Z,61.92
2022-08-27T09:02:55.295Z,61.32
2022-08-27T09:08:31.947Z,60.01
2022-08-27T09:13:41.598Z,59.93
2022-08-27T09:18:51.284Z,60.54
2022-08-27T09:24:07.274Z,60.09
2022-08-27T09:29:17.365Z,59.92
2022-08-27T09:34:25.178Z,59.48
2022-08-27T09:39:37.378Z,60.19
2022-08-27T09:44:54.698Z,60.73
2022-08-27T09:50:09.542Z,60.03
2022-08-27T09:55:29.414Z,59.79
2022-08-27T10:00:40.872Z,58.60
2022-08-27T10:05:52.127Z,57.91
2022-08-27T10:11:04.685Z,58.17
2022-08-27T10:16:33.699Z,57.32
2022-08-27T10:21:48.103Z,57.23
2022-08-27T10:27:07.104Z,56.24
2022-08-27T10:32:32.240Z,55.53
2022-08-27T10:37:52.396Z,54.51
2022-08-27T10:43:09.762Z,55.10
2022-08-27T10:48:29.390Z,54.50
2022-08-27T10:53:45.320Z,53.46
2022-08-27T10:59:02.397Z,52.69
2022-08-27T11:04:16.314Z,52.51
2022-08-27T11:09:38.528Z,51.96
2022-08-27T11:14:52.030Z,52.20
2022-08-27T11:20:08.860Z,51.78
2022-08-27T11:25:37.063Z,50.71
2022-08-27T11:30:54.245Z,50.58
2022-08-27T11:36:25.141Z,52.05
2022-08-27T11:41:46.486Z,51.25
2022-08-27T11:46:56.825Z,52.02
2022-08-27T11:52:07.417Z,52.47
2022-08-27T11:57:27.880Z,52.96
2022-08-27T12:02:34.885Z,50.98
2022-08-27T12:07:45.673Z,50.30
2022-08-27T12:13:11.606Z,50.70
2022-08-27T12:18:38.217Z,50.09
2022-08-27T12:23:54.255Z,48.34
2022-08-27T12:29:29.460Z,49.44
2022-08-27T12:34:48.826Z,50.11
2022-08-27T12:39:58.788Z,49.69
2022-08-27T12:45:07.172Z,49.52
2022-08-27T12:50:16.180Z,49.51
2022-08-27T12:55:36.012Z,49.77
2022-08-27T13:01:03.838Z,48.55
2022-08-27T13:06:22.981Z,48.24
2022-08-27T13:11:32.080Z,48.34
2022-08-27T13:16:40.954Z,47.28
2022-08-27T13:21:51.227Z,47.80
2022-08-27T13:26:58.586Z,46.34
2022-08-27T13:32:06.778Z,47.12
2022-08-27T13:37:26.667Z,46.97
2022-08-27T13:42:33.997Z,48.43
2022-08-27T13:47:48.340Z,44.88
2022-08-27T13:53:22.052Z,45.07
2022-08-27T13:58:32.022Z,45.64
2022-08-27T14:03:48.522Z,45.70
2022-08-27T14:08:55.893Z,43.87
2022-08-27T14:14:03.464Z,44.64
2022-08-27T14:19:14.256Z,45.24
2022-08-27T14:24:21.252Z,45.37
2022-08-27T14:29:28.201Z,45.69
2022-08-27T14:34:35.449Z,46.77
2022-08-27T14:39:44.959Z,46.37
2022-08-27T14:44:53.406Z,46.64
2022-08-27T14:50:00.874Z,45.87
2022-08-27T14:55:10.790Z,45.46
2022-08-27T15:00:19.041Z,44.26
2022-08-27T15:05:27.172Z,44.84
2022-08-27T15:10:34.798Z,43.56
2022-08-27T15:15:42.032Z,43.24
2022-08-27T15:20:49.332Z,43.69
2022-08-27T15:25:56.406Z,43.99
2022-08-27T15:31:03.317Z,45.73
2022-08-27T15:36:10.712Z,46.96
2022-08-27T15:41:17.664Z,47.77
2022-08-27T15:46:25.837Z,49.09
2022-08-27T15:51:34.985Z,50.65
2022-08-27T15:56:41.983Z,54.87
2022-08-27T16:01:49.880Z,58.35
2022-08-27T16:06:57.088Z,59.95
2022-08-27T16:12:04.221Z,60.79
2022-08-27T16:17:12.978Z,62.11
2022-08-27T16:22:20.257Z,63.13
2022-08-27T16:27:27.256Z,63.72
2022-08-27T16:32:35.467Z,63.94
2022-08-27T16:37:42.344Z,64.19
2022-08-27T16:42:52.874Z,64.33
2022-08-27T16:48:20.450Z,64.67
2022-08-27T16:53:27.759Z,64.44
2022-08-27T16:58:35.543Z,64.28
2022-08-27T17:04:07.424Z,64.45
2022-08-27T17:09:15.480Z,64.20
2022-08-27T17:14:22.650Z,64.08
2022-08-27T17:19:29.958Z,64.35
2022-08-27T17:24:37.270Z,64.65
2022-08-27T17:29:44.168Z,64.99
2022-08-27T17:34:51.403Z,64.92
2022-08-27T17:39:59.027Z,65.40
2022-08-27T17:45:06.698Z,65.69
2022-08-27T17:50:13.507Z,65.94
2022-08-27T17:55:20.464Z,66.40
2022-08-27T18:00:27.890Z,66.49
2022-08-27T18:05:34.753Z,67.78
2022-08-27T18:10:42.815Z,69.20
2022-08-27T18:15:51.893Z,70.35
2022-08-27T18:20:58.822Z,71.46
2022-08-27T18:26:06.789Z,71.97
2022-08-27T18:31:14.640Z,72.41
2022-08-27T18:36:21.825Z,72.85
2022-08-27T18:41:31.764Z,72.47
2022-08-27T18:46:38.750Z,72.07
2022-08-27T18:51:50.639Z,72.01
2022-08-27T18:56:59.548Z,71.65
2022-08-27T19:02:15.973Z,71.53
2022-08-27T19:07:23.574Z,72.54
2022-08-27T19:12:30.448Z,74.09
2022-08-27T19:17:40.247Z,75.18
2022-08-27T19:22:48.376Z,77.79
2022-08-27T19:27:55.831Z,78.32
2022-08-27T19:33:03.123Z,80.08
2022-08-27T19:38:12.256Z,81.95
2022-08-27T19:43:19.432Z,81.42
2022-08-27T19:48:26.950Z,81.84
2022-08-27T19:53:35.732Z,80.96
2022-08-27T19:58:43.106Z,81.91
2022-08-27T20:03:50.213Z,82.37
2022-08-27T20:08:57.196Z,83.22
2022-08-27T20:14:04.417Z,83.87
2022-08-27T20:19:11.727Z,85.34
2022-08-27T20:24:19.123Z,85.19
2022-08-27T20:29:32.689Z,85.49
2022-08-27T20:34:40.241Z,85.09
2022-08-27T20:39:48.111Z,84.73
2022-08-27T20:44:55.719Z,84.63
2022-08-27T20:50:03.344Z,86.27
2022-08-27T20:55:12.896Z,88.82
2022-08-27T21:00:21.592Z,91.15
2022-08-27T21:05:28.932Z,90.97
2022-08-27T21:10:36.429Z,90.54
2022-08-27T21:15:43.662Z,91.09
2022-08-27T21:20:50.739Z,90.71
2022-08-27T21:26:01.438Z,90.58
2022-08-27T21:31:08.795Z,90.41
2022-08-27T21:36:15.884Z,91.86
2022-08-27T21:41:23.334Z,92.06
2022-08-27T21:46:30.335Z,91.29
2022-08-27T21:51:37.572Z,90.53
2022-08-27T21:56:44.370Z,89.19
2022-08-27T22:02:00.215Z,87.63
2022-08-27T22:07:08.699Z,87.41
2022-08-27T22:12:15.902Z,87.92
2022-08-27T22:17:23.016Z,87.41
2022-08-27T22:22:30.887Z,88.15
2022-08-27T22:27:38.792Z,88.82
2022-08-27T22:32:46.126Z,89.28
2022-08-27T22:37:53.984Z,90.71
2022-08-27T22:43:01.652Z,91.55
2022-08-27T22:48:08.731Z,92.41
2022-08-27T22:53:16.139Z,93.20
2022-08-27T22:58:24.391Z,93.51
2022-08-27T23:03:31.832Z,94.70
2022-08-27T23:08:38.886Z,95.54
2022-08-27T23:13:46.151Z,95.61
2022-08-27T23:18:53.099Z,95.74
2022-08-27T23:24:01.067Z,95.97
2022-08-27T23:29:08.695Z,96.09
2022-08-27T23:34:16.238Z,96.03
2022-08-27T23:39:23.245Z,95.92
2022-08-27T23:44:31.117Z,96.38
2022-08-27T23:49:39.454Z,96.89
2022-08-27T23:54:46.447Z,97.34
2022-08-27T23:59:53.962Z,97.87
